sensor_id;sensor_type;location;lat;lon;timestamp;temperature;humidity
42683;DHT22;28293;50.930;3.464;2024-02-28T00:01:59;4.40;92.70
42683;DHT22;28293;50.930;3.464;2024-02-28T00:04:24;4.40;92.70
42683;DHT22;28293;50.930;3.464;2024-02-28T00:06:50;4.40;92.70
42683;DHT22;28293;50.930;3.464;2024-02-28T00:09:16;4.40;92.80
42683;DHT22;28293;50.930;3.464;2024-02-28T00:11:45;4.40;92.90
42683;DHT22;28293;50.930;3.464;2024-02-28T00:14:11;4.30;92.90
42683;DHT22;28293;50.930;3.464;2024-02-28T00:16:41;4.30;93.00
42683;DHT22;28293;50.930;3.464;2024-02-28T00:19:07;4.30;93.00
42683;DHT22;28293;50.930;3.464;2024-02-28T00:21:32;4.30;93.00
42683;DHT22;28293;50.930;3.464;2024-02-28T00:23:58;4.20;93.00
42683;DHT22;28293;50.930;3.464;2024-02-28T00:26:24;4.20;93.10
42683;DHT22;28293;50.930;3.464;2024-02-28T00:28:49;4.10;93.10
42683;DHT22;28293;50.930;3.464;2024-02-28T00:31:15;4.10;93.10
42683;DHT22;28293;50.930;3.464;2024-02-28T00:33:40;4.10;93.20
42683;DHT22;28293;50.930;3.464;2024-02-28T00:36:06;4.10;93.20
42683;DHT22;28293;50.930;3.464;2024-02-28T00:38:32;4.10;93.30
42683;DHT22;28293;50.930;3.464;2024-02-28T00:40:57;4.10;93.20
42683;DHT22;28293;50.930;3.464;2024-02-28T00:43:23;4.00;93.20
42683;DHT22;28293;50.930;3.464;2024-02-28T00:45:48;4.00;93.20
42683;DHT22;28293;50.930;3.464;2024-02-28T00:48:14;4.00;93.30
42683;DHT22;28293;50.930;3.464;2024-02-28T00:50:40;3.90;93.30
42683;DHT22;28293;50.930;3.464;2024-02-28T00:53:05;3.90;93.30
42683;DHT22;28293;50.930;3.464;2024-02-28T00:55:31;3.90;93.30
42683;DHT22;28293;50.930;3.464;2024-02-28T00:57:56;3.90;93.30
42683;DHT22;28293;50.930;3.464;2024-02-28T01:00:22;3.80;93.30
42683;DHT22;28293;50.930;3.464;2024-02-28T01:02:48;3.80;93.30
42683;DHT22;28293;50.930;3.464;2024-02-28T01:05:13;3.80;93.30
42683;DHT22;28293;50.930;3.464;2024-02-28T01:07:39;3.70;93.40
42683;DHT22;28293;50.930;3.464;2024-02-28T01:10:06;3.70;93.40
42683;DHT22;28293;50.930;3.464;2024-02-28T01:12:31;3.70;93.30
42683;DHT22;28293;50.930;3.464;2024-02-28T01:14:57;3.70;93.40
42683;DHT22;28293;50.930;3.464;2024-02-28T01:17:23;3.60;93.40
42683;DHT22;28293;50.930;3.464;2024-02-28T01:19:48;3.70;93.50
42683;DHT22;28293;50.930;3.464;2024-02-28T01:22:14;3.70;93.50
42683;DHT22;28293;50.930;3.464;2024-02-28T01:24:40;3.70;93.60
42683;DHT22;28293;50.930;3.464;2024-02-28T01:27:05;3.70;93.50
42683;DHT22;28293;50.930;3.464;2024-02-28T01:29:31;3.70;93.60
42683;DHT22;28293;50.930;3.464;2024-02-28T01:31:56;3.70;93.60
42683;DHT22;28293;50.930;3.464;2024-02-28T01:34:22;3.70;93.60
42683;DHT22;28293;50.930;3.464;2024-02-28T01:36:48;3.70;93.60
42683;DHT22;28293;50.930;3.464;2024-02-28T01:39:14;3.70;93.70
42683;DHT22;28293;50.930;3.464;2024-02-28T01:41:39;3.70;93.60
42683;DHT22;28293;50.930;3.464;2024-02-28T01:44:05;3.70;93.60
42683;DHT22;28293;50.930;3.464;2024-02-28T01:46:31;3.70;93.60
42683;DHT22;28293;50.930;3.464;2024-02-28T01:48:58;3.70;93.60
42683;DHT22;28293;50.930;3.464;2024-02-28T01:51:25;3.70;93.70
42683;DHT22;28293;50.930;3.464;2024-02-28T01:53:54;3.70;93.70
42683;DHT22;28293;50.930;3.464;2024-02-28T01:56:20;3.70;93.80
42683;DHT22;28293;50.930;3.464;2024-02-28T01:58:48;3.70;93.80
42683;DHT22;28293;50.930;3.464;2024-02-28T02:01:14;3.70;93.80
42683;DHT22;28293;50.930;3.464;2024-02-28T02:03:42;3.70;93.80
42683;DHT22;28293;50.930;3.464;2024-02-28T02:06:07;3.70;93.70
42683;DHT22;28293;50.930;3.464;2024-02-28T02:08:34;3.70;93.70
42683;DHT22;28293;50.930;3.464;2024-02-28T02:11:00;3.70;93.70
42683;DHT22;28293;50.930;3.464;2024-02-28T02:13:25;3.70;93.70
42683;DHT22;28293;50.930;3.464;2024-02-28T02:15:51;3.70;93.70
42683;DHT22;28293;50.930;3.464;2024-02-28T02:18:16;3.70;93.80
42683;DHT22;28293;50.930;3.464;2024-02-28T02:20:45;3.70;93.90
42683;DHT22;28293;50.930;3.464;2024-02-28T02:23:12;3.70;93.90
42683;DHT22;28293;50.930;3.464;2024-02-28T02:25:46;3.70;94.00
42683;DHT22;28293;50.930;3.464;2024-02-28T02:28:12;3.70;94.00
42683;DHT22;28293;50.930;3.464;2024-02-28T02:30:39;3.80;93.90
42683;DHT22;28293;50.930;3.464;2024-02-28T02:33:05;3.80;93.90
42683;DHT22;28293;50.930;3.464;2024-02-28T02:35:31;3.90;93.90
42683;DHT22;28293;50.930;3.464;2024-02-28T02:37:57;3.90;93.80
42683;DHT22;28293;50.930;3.464;2024-02-28T02:40:22;4.00;93.70
42683;DHT22;28293;50.930;3.464;2024-02-28T02:42:48;4.00;93.60
42683;DHT22;28293;50.930;3.464;2024-02-28T02:45:14;4.10;93.60
42683;DHT22;28293;50.930;3.464;2024-02-28T02:47:39;4.10;93.60
42683;DHT22;28293;50.930;3.464;2024-02-28T02:50:05;4.10;93.60
42683;DHT22;28293;50.930;3.464;2024-02-28T02:52:32;4.10;93.50
42683;DHT22;28293;50.930;3.464;2024-02-28T02:54:57;4.10;93.60
42683;DHT22;28293;50.930;3.464;2024-02-28T02:57:23;4.20;93.60
42683;DHT22;28293;50.930;3.464;2024-02-28T02:59:49;4.10;93.60
42683;DHT22;28293;50.930;3.464;2024-02-28T03:02:14;4.20;93.70
42683;DHT22;28293;50.930;3.464;2024-02-28T03:04:40;4.20;93.70
42683;DHT22;28293;50.930;3.464;2024-02-28T03:07:05;4.20;93.70
42683;DHT22;28293;50.930;3.464;2024-02-28T03:09:31;4.30;93.60
42683;DHT22;28293;50.930;3.464;2024-02-28T03:11:57;4.40;93.60
42683;DHT22;28293;50.930;3.464;2024-02-28T03:14:22;4.30;93.70
42683;DHT22;28293;50.930;3.464;2024-02-28T03:16:50;4.40;93.70
42683;DHT22;28293;50.930;3.464;2024-02-28T03:19:16;4.50;93.70
42683;DHT22;28293;50.930;3.464;2024-02-28T03:21:42;4.50;93.60
42683;DHT22;28293;50.930;3.464;2024-02-28T03:24:07;4.60;93.50
42683;DHT22;28293;50.930;3.464;2024-02-28T03:26:33;4.60;93.50
42683;DHT22;28293;50.930;3.464;2024-02-28T03:28:59;4.60;93.40
42683;DHT22;28293;50.930;3.464;2024-02-28T03:31:25;4.60;93.50
42683;DHT22;28293;50.930;3.464;2024-02-28T03:33:51;4.60;93.40
42683;DHT22;28293;50.930;3.464;2024-02-28T03:36:16;4.70;93.40
42683;DHT22;28293;50.930;3.464;2024-02-28T03:38:42;4.70;93.30
42683;DHT22;28293;50.930;3.464;2024-02-28T03:41:07;4.70;93.30
42683;DHT22;28293;50.930;3.464;2024-02-28T03:43:33;4.70;93.20
42683;DHT22;28293;50.930;3.464;2024-02-28T03:45:59;4.70;93.20
42683;DHT22;28293;50.930;3.464;2024-02-28T03:48:24;4.80;93.30
42683;DHT22;28293;50.930;3.464;2024-02-28T03:50:50;4.80;93.30
42683;DHT22;28293;50.930;3.464;2024-02-28T03:53:16;4.80;93.20
42683;DHT22;28293;50.930;3.464;2024-02-28T03:55:42;4.90;93.30
42683;DHT22;28293;50.930;3.464;2024-02-28T03:58:09;4.80;93.20
42683;DHT22;28293;50.930;3.464;2024-02-28T04:00:35;4.90;93.30
42683;DHT22;28293;50.930;3.464;2024-02-28T04:03:02;4.90;93.30
42683;DHT22;28293;50.930;3.464;2024-02-28T04:05:28;5.00;93.30
42683;DHT22;28293;50.930;3.464;2024-02-28T04:07:54;5.00;93.30
42683;DHT22;28293;50.930;3.464;2024-02-28T04:10:20;5.00;93.30
42683;DHT22;28293;50.930;3.464;2024-02-28T04:12:46;5.10;93.20
42683;DHT22;28293;50.930;3.464;2024-02-28T04:15:12;5.00;93.30
42683;DHT22;28293;50.930;3.464;2024-02-28T04:17:40;5.10;93.40
42683;DHT22;28293;50.930;3.464;2024-02-28T04:20:12;5.10;93.40
42683;DHT22;28293;50.930;3.464;2024-02-28T04:22:38;5.10;93.40
42683;DHT22;28293;50.930;3.464;2024-02-28T04:25:08;5.10;93.50
42683;DHT22;28293;50.930;3.464;2024-02-28T04:27:35;5.10;93.50
42683;DHT22;28293;50.930;3.464;2024-02-28T04:30:01;5.20;93.60
42683;DHT22;28293;50.930;3.464;2024-02-28T04:32:26;5.20;93.60
42683;DHT22;28293;50.930;3.464;2024-02-28T04:34:52;5.20;93.70
42683;DHT22;28293;50.930;3.464;2024-02-28T04:37:17;5.20;93.70
42683;DHT22;28293;50.930;3.464;2024-02-28T04:39:43;5.30;93.70
42683;DHT22;28293;50.930;3.464;2024-02-28T04:42:09;5.30;93.80
42683;DHT22;28293;50.930;3.464;2024-02-28T04:44:34;5.30;93.80
42683;DHT22;28293;50.930;3.464;2024-02-28T04:47:01;5.40;93.90
42683;DHT22;28293;50.930;3.464;2024-02-28T04:49:26;5.30;94.00
42683;DHT22;28293;50.930;3.464;2024-02-28T04:51:52;5.40;94.00
42683;DHT22;28293;50.930;3.464;2024-02-28T04:54:18;5.40;94.00
42683;DHT22;28293;50.930;3.464;2024-02-28T04:56:44;5.40;94.10
42683;DHT22;28293;50.930;3.464;2024-02-28T04:59:11;5.50;94.20
42683;DHT22;28293;50.930;3.464;2024-02-28T05:01:40;5.50;94.20
42683;DHT22;28293;50.930;3.464;2024-02-28T05:04:08;5.50;94.20
42683;DHT22;28293;50.930;3.464;2024-02-28T05:06:34;5.50;94.30
42683;DHT22;28293;50.930;3.464;2024-02-28T05:09:00;5.50;94.30
42683;DHT22;28293;50.930;3.464;2024-02-28T05:11:26;5.50;94.30
42683;DHT22;28293;50.930;3.464;2024-02-28T05:13:51;5.60;94.40
42683;DHT22;28293;50.930;3.464;2024-02-28T05:16:17;5.60;94.50
42683;DHT22;28293;50.930;3.464;2024-02-28T05:18:46;5.60;94.50
42683;DHT22;28293;50.930;3.464;2024-02-28T05:21:12;5.60;94.50
42683;DHT22;28293;50.930;3.464;2024-02-28T05:23:39;5.70;94.50
42683;DHT22;28293;50.930;3.464;2024-02-28T05:26:05;5.70;94.50
42683;DHT22;28293;50.930;3.464;2024-02-28T05:28:32;5.60;94.60
42683;DHT22;28293;50.930;3.464;2024-02-28T05:31:23;5.70;94.70
42683;DHT22;28293;50.930;3.464;2024-02-28T05:33:53;5.70;94.70
42683;DHT22;28293;50.930;3.464;2024-02-28T05:36:20;5.70;94.70
42683;DHT22;28293;50.930;3.464;2024-02-28T05:38:47;5.70;94.70
42683;DHT22;28293;50.930;3.464;2024-02-28T05:41:13;5.80;94.80
42683;DHT22;28293;50.930;3.464;2024-02-28T05:43:40;5.70;94.80
42683;DHT22;28293;50.930;3.464;2024-02-28T05:46:06;5.80;94.80
42683;DHT22;28293;50.930;3.464;2024-02-28T05:48:32;5.80;94.90
42683;DHT22;28293;50.930;3.464;2024-02-28T05:50:57;5.80;94.90
42683;DHT22;28293;50.930;3.464;2024-02-28T05:53:23;5.80;94.90
42683;DHT22;28293;50.930;3.464;2024-02-28T05:55:55;5.80;95.00
42683;DHT22;28293;50.930;3.464;2024-02-28T05:58:22;5.80;95.00
42683;DHT22;28293;50.930;3.464;2024-02-28T06:00:48;5.90;95.00
42683;DHT22;28293;50.930;3.464;2024-02-28T06:03:14;5.80;95.00
42683;DHT22;28293;50.930;3.464;2024-02-28T06:05:40;5.80;95.00
42683;DHT22;28293;50.930;3.464;2024-02-28T06:08:06;5.80;95.10
42683;DHT22;28293;50.930;3.464;2024-02-28T06:10:32;5.90;95.20
42683;DHT22;28293;50.930;3.464;2024-02-28T06:12:57;5.90;95.20
42683;DHT22;28293;50.930;3.464;2024-02-28T06:15:23;5.90;95.30
42683;DHT22;28293;50.930;3.464;2024-02-28T06:17:49;6.00;95.30
42683;DHT22;28293;50.930;3.464;2024-02-28T06:20:14;6.00;95.40
42683;DHT22;28293;50.930;3.464;2024-02-28T06:22:40;6.00;95.40
42683;DHT22;28293;50.930;3.464;2024-02-28T06:25:06;6.00;95.40
42683;DHT22;28293;50.930;3.464;2024-02-28T06:27:39;6.00;95.30
42683;DHT22;28293;50.930;3.464;2024-02-28T06:30:06;6.00;95.30
42683;DHT22;28293;50.930;3.464;2024-02-28T06:32:32;6.10;95.30
42683;DHT22;28293;50.930;3.464;2024-02-28T06:34:58;6.10;95.30
42683;DHT22;28293;50.930;3.464;2024-02-28T06:37:24;6.10;95.30
42683;DHT22;28293;50.930;3.464;2024-02-28T06:39:50;6.10;95.40
42683;DHT22;28293;50.930;3.464;2024-02-28T06:42:15;6.10;95.40
42683;DHT22;28293;50.930;3.464;2024-02-28T06:44:41;6.10;95.40
42683;DHT22;28293;50.930;3.464;2024-02-28T06:47:07;6.10;95.50
42683;DHT22;28293;50.930;3.464;2024-02-28T06:49:33;6.10;95.50
42683;DHT22;28293;50.930;3.464;2024-02-28T06:51:58;6.10;95.60
42683;DHT22;28293;50.930;3.464;2024-02-28T06:54:27;6.10;95.60
42683;DHT22;28293;50.930;3.464;2024-02-28T06:56:53;6.10;95.60
42683;DHT22;28293;50.930;3.464;2024-02-28T06:59:18;6.20;95.70
42683;DHT22;28293;50.930;3.464;2024-02-28T07:01:44;6.20;95.60
42683;DHT22;28293;50.930;3.464;2024-02-28T07:04:09;6.20;95.70
42683;DHT22;28293;50.930;3.464;2024-02-28T07:06:35;6.20;95.80
42683;DHT22;28293;50.930;3.464;2024-02-28T07:09:01;6.20;95.80
42683;DHT22;28293;50.930;3.464;2024-02-28T07:11:26;6.30;95.80
42683;DHT22;28293;50.930;3.464;2024-02-28T07:13:53;6.30;95.80
42683;DHT22;28293;50.930;3.464;2024-02-28T07:16:18;6.30;95.80
42683;DHT22;28293;50.930;3.464;2024-02-28T07:18:44;6.40;95.80
42683;DHT22;28293;50.930;3.464;2024-02-28T07:21:09;6.40;95.90
42683;DHT22;28293;50.930;3.464;2024-02-28T07:23:38;6.40;95.80
42683;DHT22;28293;50.930;3.464;2024-02-28T07:26:03;6.40;95.80
42683;DHT22;28293;50.930;3.464;2024-02-28T07:28:31;6.40;95.70
42683;DHT22;28293;50.930;3.464;2024-02-28T07:30:56;6.50;95.70
42683;DHT22;28293;50.930;3.464;2024-02-28T07:33:22;6.60;95.70
42683;DHT22;28293;50.930;3.464;2024-02-28T07:35:49;6.60;95.80
42683;DHT22;28293;50.930;3.464;2024-02-28T07:38:15;6.70;95.70
42683;DHT22;28293;50.930;3.464;2024-02-28T07:40:42;6.80;95.50
42683;DHT22;28293;50.930;3.464;2024-02-28T07:43:08;6.90;95.40
42683;DHT22;28293;50.930;3.464;2024-02-28T07:45:34;7.00;95.30
42683;DHT22;28293;50.930;3.464;2024-02-28T07:48:00;7.00;95.20
42683;DHT22;28293;50.930;3.464;2024-02-28T07:50:26;7.10;95.30
42683;DHT22;28293;50.930;3.464;2024-02-28T07:52:54;7.10;95.10
42683;DHT22;28293;50.930;3.464;2024-02-28T07:55:20;7.10;95.00
42683;DHT22;28293;50.930;3.464;2024-02-28T07:57:56;7.10;95.00
42683;DHT22;28293;50.930;3.464;2024-02-28T08:00:22;7.10;95.00
42683;DHT22;28293;50.930;3.464;2024-02-28T08:02:47;7.30;95.00
42683;DHT22;28293;50.930;3.464;2024-02-28T08:05:14;7.30;95.00
42683;DHT22;28293;50.930;3.464;2024-02-28T08:07:41;7.30;94.70
42683;DHT22;28293;50.930;3.464;2024-02-28T08:10:07;7.40;94.70
42683;DHT22;28293;50.930;3.464;2024-02-28T08:12:32;7.30;94.60
42683;DHT22;28293;50.930;3.464;2024-02-28T08:14:58;7.30;94.40
42683;DHT22;28293;50.930;3.464;2024-02-28T08:17:24;7.20;94.50
42683;DHT22;28293;50.930;3.464;2024-02-28T08:19:49;7.30;94.50
42683;DHT22;28293;50.930;3.464;2024-02-28T08:22:15;7.40;94.50
42683;DHT22;28293;50.930;3.464;2024-02-28T08:24:41;7.50;94.50
42683;DHT22;28293;50.930;3.464;2024-02-28T08:27:07;7.60;94.40
42683;DHT22;28293;50.930;3.464;2024-02-28T08:29:32;7.60;94.20
42683;DHT22;28293;50.930;3.464;2024-02-28T08:32:01;7.70;93.90
42683;DHT22;28293;50.930;3.464;2024-02-28T08:34:28;7.80;93.70
42683;DHT22;28293;50.930;3.464;2024-02-28T08:36:53;7.90;93.50
42683;DHT22;28293;50.930;3.464;2024-02-28T08:39:19;8.10;93.40
42683;DHT22;28293;50.930;3.464;2024-02-28T08:41:45;8.20;93.10
42683;DHT22;28293;50.930;3.464;2024-02-28T08:44:10;8.10;92.70
42683;DHT22;28293;50.930;3.464;2024-02-28T08:46:36;8.20;92.80
42683;DHT22;28293;50.930;3.464;2024-02-28T08:49:02;8.30;92.40
42683;DHT22;28293;50.930;3.464;2024-02-28T08:51:28;8.20;92.20
42683;DHT22;28293;50.930;3.464;2024-02-28T08:53:54;8.30;92.40
42683;DHT22;28293;50.930;3.464;2024-02-28T08:56:20;8.40;92.00
42683;DHT22;28293;50.930;3.464;2024-02-28T08:58:46;8.40;91.80
42683;DHT22;28293;50.930;3.464;2024-02-28T09:01:15;8.40;91.70
42683;DHT22;28293;50.930;3.464;2024-02-28T09:03:41;8.40;91.90
42683;DHT22;28293;50.930;3.464;2024-02-28T09:06:06;8.50;91.70
42683;DHT22;28293;50.930;3.464;2024-02-28T09:08:32;8.60;91.50
42683;DHT22;28293;50.930;3.464;2024-02-28T09:10:58;8.80;91.30
42683;DHT22;28293;50.930;3.464;2024-02-28T09:13:24;8.90;91.00
42683;DHT22;28293;50.930;3.464;2024-02-28T09:15:49;8.90;90.50
42683;DHT22;28293;50.930;3.464;2024-02-28T09:18:16;9.00;90.20
42683;DHT22;28293;50.930;3.464;2024-02-28T09:20:42;9.20;90.20
42683;DHT22;28293;50.930;3.464;2024-02-28T09:23:08;9.30;89.90
42683;DHT22;28293;50.930;3.464;2024-02-28T09:25:33;9.40;89.60
42683;DHT22;28293;50.930;3.464;2024-02-28T09:28:01;9.40;89.40
42683;DHT22;28293;50.930;3.464;2024-02-28T09:30:27;9.40;89.50
42683;DHT22;28293;50.930;3.464;2024-02-28T09:32:53;9.20;89.40
42683;DHT22;28293;50.930;3.464;2024-02-28T09:35:19;9.10;89.90
42683;DHT22;28293;50.930;3.464;2024-02-28T09:37:44;9.20;89.90
42683;DHT22;28293;50.930;3.464;2024-02-28T09:40:11;9.40;89.80
42683;DHT22;28293;50.930;3.464;2024-02-28T09:42:37;9.40;89.20
42683;DHT22;28293;50.930;3.464;2024-02-28T09:45:03;9.40;89.10
42683;DHT22;28293;50.930;3.464;2024-02-28T09:47:30;9.50;89.20
42683;DHT22;28293;50.930;3.464;2024-02-28T09:49:57;9.50;89.40
42683;DHT22;28293;50.930;3.464;2024-02-28T09:52:27;9.40;89.40
42683;DHT22;28293;50.930;3.464;2024-02-28T09:54:57;9.30;89.70
42683;DHT22;28293;50.930;3.464;2024-02-28T09:57:23;9.30;89.90
42683;DHT22;28293;50.930;3.464;2024-02-28T09:59:55;9.20;90.00
42683;DHT22;28293;50.930;3.464;2024-02-28T10:02:23;9.20;90.20
42683;DHT22;28293;50.930;3.464;2024-02-28T10:04:49;9.10;90.20
42683;DHT22;28293;50.930;3.464;2024-02-28T10:07:15;9.00;90.50
42683;DHT22;28293;50.930;3.464;2024-02-28T10:09:41;9.00;90.90
42683;DHT22;28293;50.930;3.464;2024-02-28T10:12:07;9.00;91.20
42683;DHT22;28293;50.930;3.464;2024-02-28T10:14:33;8.90;91.40
42683;DHT22;28293;50.930;3.464;2024-02-28T10:16:59;8.90;91.50
42683;DHT22;28293;50.930;3.464;2024-02-28T10:19:25;8.90;91.50
42683;DHT22;28293;50.930;3.464;2024-02-28T10:21:51;9.00;91.60
42683;DHT22;28293;50.930;3.464;2024-02-28T10:24:17;9.10;91.50
42683;DHT22;28293;50.930;3.464;2024-02-28T10:26:46;9.20;91.20
42683;DHT22;28293;50.930;3.464;2024-02-28T10:29:24;9.20;90.90
42683;DHT22;28293;50.930;3.464;2024-02-28T10:31:51;9.10;90.90
42683;DHT22;28293;50.930;3.464;2024-02-28T10:34:17;9.10;91.10
42683;DHT22;28293;50.930;3.464;2024-02-28T10:36:44;9.10;91.20
42683;DHT22;28293;50.930;3.464;2024-02-28T10:39:11;9.20;91.30
42683;DHT22;28293;50.930;3.464;2024-02-28T10:41:41;9.20;91.50
42683;DHT22;28293;50.930;3.464;2024-02-28T10:44:08;9.20;92.10
42683;DHT22;28293;50.930;3.464;2024-02-28T10:46:34;9.10;92.10
42683;DHT22;28293;50.930;3.464;2024-02-28T10:49:00;9.10;92.30
42683;DHT22;28293;50.930;3.464;2024-02-28T10:51:26;9.00;92.80
42683;DHT22;28293;50.930;3.464;2024-02-28T10:54:12;8.90;93.10
42683;DHT22;28293;50.930;3.464;2024-02-28T10:56:39;9.00;93.60
42683;DHT22;28293;50.930;3.464;2024-02-28T10:59:07;9.00;93.50
42683;DHT22;28293;50.930;3.464;2024-02-28T11:01:37;9.10;93.60
42683;DHT22;28293;50.930;3.464;2024-02-28T11:04:04;9.10;93.60
42683;DHT22;28293;50.930;3.464;2024-02-28T11:06:30;9.00;93.60
42683;DHT22;28293;50.930;3.464;2024-02-28T11:08:59;9.10;93.70
42683;DHT22;28293;50.930;3.464;2024-02-28T11:11:30;9.10;93.80
42683;DHT22;28293;50.930;3.464;2024-02-28T11:13:57;9.10;93.80
42683;DHT22;28293;50.930;3.464;2024-02-28T11:16:33;9.10;94.00
42683;DHT22;28293;50.930;3.464;2024-02-28T11:19:00;9.10;93.90
42683;DHT22;28293;50.930;3.464;2024-02-28T11:21:27;9.10;93.90
42683;DHT22;28293;50.930;3.464;2024-02-28T11:24:00;9.20;94.10
42683;DHT22;28293;50.930;3.464;2024-02-28T11:26:27;9.30;94.20
42683;DHT22;28293;50.930;3.464;2024-02-28T11:28:54;9.40;94.00
42683;DHT22;28293;50.930;3.464;2024-02-28T11:31:21;9.50;93.90
42683;DHT22;28293;50.930;3.464;2024-02-28T11:33:47;9.50;93.70
42683;DHT22;28293;50.930;3.464;2024-02-28T11:36:13;9.60;93.60
42683;DHT22;28293;50.930;3.464;2024-02-28T11:38:40;9.60;93.40
42683;DHT22;28293;50.930;3.464;2024-02-28T11:41:06;9.60;93.30
42683;DHT22;28293;50.930;3.464;2024-02-28T11:43:32;9.60;93.10
42683;DHT22;28293;50.930;3.464;2024-02-28T11:45:58;9.70;93.10
42683;DHT22;28293;50.930;3.464;2024-02-28T11:48:25;9.90;93.10
42683;DHT22;28293;50.930;3.464;2024-02-28T11:50:52;9.90;92.70
42683;DHT22;28293;50.930;3.464;2024-02-28T11:53:18;10.10;92.40
42683;DHT22;28293;50.930;3.464;2024-02-28T11:55:45;10.00;91.40
42683;DHT22;28293;50.930;3.464;2024-02-28T11:58:13;10.10;91.70
42683;DHT22;28293;50.930;3.464;2024-02-28T12:00:49;10.10;91.40
42683;DHT22;28293;50.930;3.464;2024-02-28T12:03:22;10.20;91.20
42683;DHT22;28293;50.930;3.464;2024-02-28T12:05:49;10.30;91.00
42683;DHT22;28293;50.930;3.464;2024-02-28T12:08:17;10.30;90.30
42683;DHT22;28293;50.930;3.464;2024-02-28T12:10:45;10.30;90.30
42683;DHT22;28293;50.930;3.464;2024-02-28T12:13:11;10.40;90.10
42683;DHT22;28293;50.930;3.464;2024-02-28T12:15:39;10.60;89.70
42683;DHT22;28293;50.930;3.464;2024-02-28T12:18:10;10.70;89.30
42683;DHT22;28293;50.930;3.464;2024-02-28T12:20:36;10.60;88.70
42683;DHT22;28293;50.930;3.464;2024-02-28T12:23:06;10.60;88.60
42683;DHT22;28293;50.930;3.464;2024-02-28T12:25:33;10.50;88.40
42683;DHT22;28293;50.930;3.464;2024-02-28T12:28:00;10.40;88.60
42683;DHT22;28293;50.930;3.464;2024-02-28T12:30:26;10.60;88.90
42683;DHT22;28293;50.930;3.464;2024-02-28T12:32:52;10.60;88.80
42683;DHT22;28293;50.930;3.464;2024-02-28T12:35:18;10.70;88.60
42683;DHT22;28293;50.930;3.464;2024-02-28T12:37:43;10.80;88.00
42683;DHT22;28293;50.930;3.464;2024-02-28T12:40:09;10.80;87.60
42683;DHT22;28293;50.930;3.464;2024-02-28T12:42:35;10.90;87.50
42683;DHT22;28293;50.930;3.464;2024-02-28T12:45:02;10.90;87.40
42683;DHT22;28293;50.930;3.464;2024-02-28T12:47:28;10.80;87.30
42683;DHT22;28293;50.930;3.464;2024-02-28T12:49:56;10.70;87.50
42683;DHT22;28293;50.930;3.464;2024-02-28T12:52:21;10.60;87.70
42683;DHT22;28293;50.930;3.464;2024-02-28T12:54:47;10.70;87.80
42683;DHT22;28293;50.930;3.464;2024-02-28T12:57:12;10.70;87.70
42683;DHT22;28293;50.930;3.464;2024-02-28T12:59:42;10.60;87.80
42683;DHT22;28293;50.930;3.464;2024-02-28T13:02:09;10.60;87.80
42683;DHT22;28293;50.930;3.464;2024-02-28T13:04:35;10.60;87.80
42683;DHT22;28293;50.930;3.464;2024-02-28T13:07:00;10.60;87.80
42683;DHT22;28293;50.930;3.464;2024-02-28T13:09:26;10.80;88.00
42683;DHT22;28293;50.930;3.464;2024-02-28T13:11:51;11.00;87.70
42683;DHT22;28293;50.930;3.464;2024-02-28T13:14:17;11.00;87.00
42683;DHT22;28293;50.930;3.464;2024-02-28T13:16:44;11.10;86.60
42683;DHT22;28293;50.930;3.464;2024-02-28T13:19:09;11.20;86.40
42683;DHT22;28293;50.930;3.464;2024-02-28T13:21:35;11.30;86.40
42683;DHT22;28293;50.930;3.464;2024-02-28T13:24:02;11.40;86.10
42683;DHT22;28293;50.930;3.464;2024-02-28T13:26:29;11.40;85.80
42683;DHT22;28293;50.930;3.464;2024-02-28T13:28:55;11.50;85.50
42683;DHT22;28293;50.930;3.464;2024-02-28T13:31:21;11.60;85.40
42683;DHT22;28293;50.930;3.464;2024-02-28T13:33:46;11.80;85.10
42683;DHT22;28293;50.930;3.464;2024-02-28T13:36:13;11.90;84.30
42683;DHT22;28293;50.930;3.464;2024-02-28T13:38:39;12.00;83.90
42683;DHT22;28293;50.930;3.464;2024-02-28T13:41:05;12.00;83.20
42683;DHT22;28293;50.930;3.464;2024-02-28T13:43:30;11.90;83.40
42683;DHT22;28293;50.930;3.464;2024-02-28T13:45:56;11.80;83.90
42683;DHT22;28293;50.930;3.464;2024-02-28T13:48:26;11.90;83.80
42683;DHT22;28293;50.930;3.464;2024-02-28T13:50:54;11.70;83.90
42683;DHT22;28293;50.930;3.464;2024-02-28T13:53:19;11.60;83.90
42683;DHT22;28293;50.930;3.464;2024-02-28T13:55:45;11.60;83.80
42683;DHT22;28293;50.930;3.464;2024-02-28T13:58:14;11.50;84.00
42683;DHT22;28293;50.930;3.464;2024-02-28T14:00:44;11.40;84.20
42683;DHT22;28293;50.930;3.464;2024-02-28T14:03:13;11.40;84.80
42683;DHT22;28293;50.930;3.464;2024-02-28T14:05:39;11.40;84.80
42683;DHT22;28293;50.930;3.464;2024-02-28T14:08:05;11.40;85.00
42683;DHT22;28293;50.930;3.464;2024-02-28T14:10:33;11.50;84.80
42683;DHT22;28293;50.930;3.464;2024-02-28T14:12:59;11.50;85.10
42683;DHT22;28293;50.930;3.464;2024-02-28T14:15:25;11.60;84.80
42683;DHT22;28293;50.930;3.464;2024-02-28T14:17:51;11.60;84.50
42683;DHT22;28293;50.930;3.464;2024-02-28T14:20:17;11.60;84.40
42683;DHT22;28293;50.930;3.464;2024-02-28T14:22:43;11.60;84.30
42683;DHT22;28293;50.930;3.464;2024-02-28T14:25:13;11.50;84.70
42683;DHT22;28293;50.930;3.464;2024-02-28T14:27:39;11.50;84.90
42683;DHT22;28293;50.930;3.464;2024-02-28T14:30:07;11.60;84.70
42683;DHT22;28293;50.930;3.464;2024-02-28T14:32:38;11.60;84.60
42683;DHT22;28293;50.930;3.464;2024-02-28T14:35:05;11.60;84.70
42683;DHT22;28293;50.930;3.464;2024-02-28T14:37:34;11.50;84.70
42683;DHT22;28293;50.930;3.464;2024-02-28T14:40:00;11.50;85.00
42683;DHT22;28293;50.930;3.464;2024-02-28T14:42:35;11.40;85.00
42683;DHT22;28293;50.930;3.464;2024-02-28T14:45:01;11.40;85.10
42683;DHT22;28293;50.930;3.464;2024-02-28T14:47:27;11.30;85.20
42683;DHT22;28293;50.930;3.464;2024-02-28T14:49:53;11.20;85.40
42683;DHT22;28293;50.930;3.464;2024-02-28T14:52:18;11.20;85.40
42683;DHT22;28293;50.930;3.464;2024-02-28T14:54:44;11.20;85.50
42683;DHT22;28293;50.930;3.464;2024-02-28T14:57:11;11.20;85.60
42683;DHT22;28293;50.930;3.464;2024-02-28T14:59:37;11.10;85.80
42683;DHT22;28293;50.930;3.464;2024-02-28T15:02:03;11.00;86.00
42683;DHT22;28293;50.930;3.464;2024-02-28T15:04:29;10.90;86.20
42683;DHT22;28293;50.930;3.464;2024-02-28T15:06:54;10.90;86.60
42683;DHT22;28293;50.930;3.464;2024-02-28T15:09:20;10.90;86.80
42683;DHT22;28293;50.930;3.464;2024-02-28T15:11:49;10.90;87.00
42683;DHT22;28293;50.930;3.464;2024-02-28T15:14:15;10.90;86.70
42683;DHT22;28293;50.930;3.464;2024-02-28T15:16:41;10.80;86.80
42683;DHT22;28293;50.930;3.464;2024-02-28T15:19:06;10.80;86.90
42683;DHT22;28293;50.930;3.464;2024-02-28T15:21:32;10.70;87.00
42683;DHT22;28293;50.930;3.464;2024-02-28T15:23:58;10.70;87.20
42683;DHT22;28293;50.930;3.464;2024-02-28T15:26:23;10.60;87.20
42683;DHT22;28293;50.930;3.464;2024-02-28T15:28:49;10.60;87.30
42683;DHT22;28293;50.930;3.464;2024-02-28T15:31:15;10.60;87.40
42683;DHT22;28293;50.930;3.464;2024-02-28T15:33:40;10.60;87.40
42683;DHT22;28293;50.930;3.464;2024-02-28T15:36:06;10.60;87.40
42683;DHT22;28293;50.930;3.464;2024-02-28T15:38:33;10.70;87.50